SondeTracker

Meteorological Radiosondes Database

Operations

Sounding was ended - last measurement: 2021-07-20 01:09:00z

MAP
About Radiosonde

Number: S2340744

Launch Site: Florianopolis (BR)

Type: RS41

AUX: NO

Frequency: 405.302 MHz

Max Speed: 215 km/h at 11981 m

Average Speed: 87.87 km/h

Max Altitude: 26032 m

Average Ascent Speed: 6.56 m/s

Average Descent Speed: 14.62 m/s

Status: LOST

Status Changes
Launch Site Type AUX Frequency Status Finder Landing Point Description Changes made by
MHz LOST 0, 0 AUTO STATUS: Probably lost in the water [BOT]AUTO-STATUS - 2021-07-20 01:30:53z
APRS Statistics

Received Frames: 278

First Frame [UTC]: 2021-07-19 23:36:00z

Last Frame [UTC]: 2021-07-20 01:09:00z

Receivers: PP5UF-6, PY2PE-11

Flight Time: 01:33:00 h

Distance From First Measurement: 127.14 km

Nearest City: [0.00 km]

Nearest Hunter: [0.00 km]

Ground Altitude: -123 m

Distance from QTH: 0.00 km

APRS Data
Receiver Number Date/Time [UTC] φ λ Course [°] Speed [km/h] Altitude [m] Description
PP5UF-6S23407442021-07-20 01:09:00-27.156-47.3842628299Clb=-10.4m/s t=13.3C 405.301 MHz Type=RS41-SGP Vaisala http://sondehub.org/S2340744 https://radiosondy.info/sonde.php?sondenumbe
PP5UF-6S23407442021-07-20 01:08:40-27.1574-47.38473226537Clb=-10.5m/s t=11.1C 405.301 MHz Type=RS41-SGP Vaisala http://sondehub.org/S2340744 https://radiosondy.info/sonde.php?sondenumbe
PP5UF-6S23407442021-07-20 01:08:20-27.1581-47.38546420709Clb=-10.6m/s t=10.6C 405.301 MHz Type=RS41-SGP Vaisala http://sondehub.org/S2340744 https://radiosondy.info/sonde.php?sondenumbe
PP5UF-6S23407442021-07-20 01:08:00-27.1586-47.38745733958Clb=-10.5m/s t=10.4C 405.301 MHz Type=RS41-SGP Vaisala http://sondehub.org/S2340744 https://radiosondy.info/sonde.php?sondenumbe
PP5UF-6S23407442021-07-20 01:07:40-27.16-47.389444501180Clb=-10.1m/s t=8.8C 405.301 MHz Type=RS41-SGP Vaisala http://sondehub.org/S2340744 https://radiosondy.info/sonde.php?sondenumber
PP5UF-6S23407442021-07-20 01:07:20-27.1618-47.391339481389Clb=-10.0m/s t=6.9C 405.301 MHz Type=RS41-SGP Vaisala http://sondehub.org/S2340744 https://radiosondy.info/sonde.php?sondenumber
PP5UF-6S23407442021-07-20 01:07:00-27.1639-47.393235571597Clb=-10.1m/s t=5.1C 405.301 MHz Type=RS41-SGP Vaisala http://sondehub.org/S2340744 https://radiosondy.info/sonde.php?sondenumber
PP5UF-6S23407442021-07-20 01:06:40-27.1652-47.394233541704Clb=-10.0m/s t=5.0C 405.301 MHz Type=RS41-SGP Vaisala http://sondehub.org/S2340744 https://radiosondy.info/sonde.php?sondenumber
PP5UF-6S23407442021-07-20 01:06:20-27.1677-47.39628541917Clb=-9.7m/s t=4.2C 405.301 MHz Type=RS41-SGP Vaisala http://sondehub.org/S2340744 https://radiosondy.info/sonde.php?sondenumber=
PP5UF-6S23407442021-07-20 01:06:01-27.1703-47.397621542135Clb=-10.7m/s t=3.9C 405.301 MHz Type=RS41-SGP Vaisala http://sondehub.org/S2340744 https://radiosondy.info/sonde.php?sondenumber
PP5UF-6S23407442021-07-20 01:05:40-27.1731-47.398615562353Clb=-10.3m/s t=4.6C 405.301 MHz Type=RS41-SGP Vaisala http://sondehub.org/S2340744 https://radiosondy.info/sonde.php?sondenumber
PP5UF-6S23407442021-07-20 01:05:20-27.1762-47.399719632587Clb=-11.1m/s t=3.1C 405.301 MHz Type=RS41-SGP Vaisala http://sondehub.org/S2340744 https://radiosondy.info/sonde.php?sondenumber
PP5UF-6S23407442021-07-20 01:05:00-27.1794-47.400815692803Clb=-10.9m/s t=2.2C 405.301 MHz Type=RS41-SGP Vaisala http://sondehub.org/S2340744 https://radiosondy.info/sonde.php?sondenumber
PP5UF-6S23407442021-07-20 01:04:40-27.1821-47.401616812968Clb=-12.2m/s t=2.2C 405.301 MHz Type=RS41-SGP Vaisala http://sondehub.org/S2340744 https://radiosondy.info/sonde.php?sondenumber
PP5UF-6S23407442021-07-20 01:04:20-27.1858-47.403225723177Clb=-11.3m/s t=1.1C 405.301 MHz Type=RS41-SGP Vaisala http://sondehub.org/S2340744 https://radiosondy.info/sonde.php?sondenumber
PP5UF-6S23407442021-07-20 01:04:00-27.1893-47.404716693411Clb=-11.3m/s t=0.2C 405.301 MHz Type=RS41-SGP Vaisala http://sondehub.org/S2340744 https://radiosondy.info/sonde.php?sondenumber
PP5UF-6S23407442021-07-20 01:03:40-27.1924-47.405814673620Clb=-11.1m/s t=-1.2C 405.301 MHz Type=RS41-SGP Vaisala http://sondehub.org/S2340744 https://radiosondy.info/sonde.php?sondenumbe
PP5UF-6S23407442021-07-20 01:03:20-27.1957-47.40726653844Clb=-10.9m/s t=-2.6C 405.301 MHz Type=RS41-SGP Vaisala http://sondehub.org/S2340744 https://radiosondy.info/sonde.php?sondenumbe
PP5UF-6S23407442021-07-20 01:03:00-27.1985-47.408936594058Clb=-11.0m/s t=-4.0C 405.301 MHz Type=RS41-SGP Vaisala http://sondehub.org/S2340744 https://radiosondy.info/sonde.php?sondenumbe
PP5UF-6S23407442021-07-20 01:02:40-27.2012-47.41137694279Clb=-10.8m/s t=-5.4C 405.301 MHz Type=RS41-SGP Vaisala http://sondehub.org/S2340744 https://radiosondy.info/sonde.php?sondenumbe
PP5UF-6S23407442021-07-20 01:02:20-27.2044-47.413432874486Clb=-9.6m/s t=-5.4C 405.301 MHz Type=RS41-SGP Vaisala http://sondehub.org/S2340744 https://radiosondy.info/sonde.php?sondenumber
PP5UF-6S23407442021-07-20 01:02:00-27.2088-47.4163291064721Clb=-13.1m/s t=-4.1C 405.301 MHz Type=RS41-SGP Vaisala http://sondehub.org/S2340744 https://radiosondy.info/sonde.php?sondenumbe
PP5UF-6S23407442021-07-20 01:01:40-27.2135-47.4196341074955Clb=-11.2m/s t=-6.0C 405.301 MHz Type=RS41-SGP Vaisala http://sondehub.org/S2340744 https://radiosondy.info/sonde.php?sondenumbe
PP5UF-6S23407442021-07-20 01:01:20-27.2179-47.4234401095171Clb=-10.9m/s t=-7.8C 405.301 MHz Type=RS41-SGP Vaisala http://sondehub.org/S2340744 https://radiosondy.info/sonde.php?sondenumbe
PP5UF-6S23407442021-07-20 01:01:00-27.222-47.4275441065377Clb=-11.6m/s t=-9.5C 405.301 MHz Type=RS41-SGP Vaisala http://sondehub.org/S2340744 https://radiosondy.info/sonde.php?sondenumbe
PP5UF-6S23407442021-07-20 01:00:40-27.2257-47.4317461025583Clb=-10.2m/s t=-10.9C 405.301 MHz Type=RS41-SGP Vaisala http://sondehub.org/S2340744 https://radiosondy.info/sonde.php?sondenumb
PP5UF-6S23407442021-07-20 01:00:20-27.2293-47.4358451045792Clb=-10.7m/s t=-12.8C 405.301 MHz Type=RS41-SGP Vaisala http://sondehub.org/S2340744 https://radiosondy.info/sonde.php?sondenumb
PP5UF-6S23407442021-07-20 01:00:00-27.2328-47.44501026011Clb=-12.0m/s t=-14.8C 405.301 MHz Type=RS41-SGP Vaisala http://sondehub.org/S2340744 https://radiosondy.info/sonde.php?sondenumb
PP5UF-6S23407442021-07-20 00:59:40-27.2361-47.4446521066231Clb=-10.9m/s t=-16.8C 405.301 MHz Type=RS41-SGP Vaisala http://sondehub.org/S2340744 https://radiosondy.info/sonde.php?sondenumb
PP5UF-6S23407442021-07-20 00:59:20-27.2395-47.4495511076447Clb=-11.6m/s t=-18.8C 405.301 MHz Type=RS41-SGP Vaisala http://sondehub.org/S2340744 https://radiosondy.info/sonde.php?sondenumb
PP5UF-6S23407442021-07-20 00:59:00-27.2427-47.4545541136674Clb=-12.3m/s t=-20.2C 405.301 MHz Type=RS41-SGP Vaisala http://sondehub.org/S2340744 https://radiosondy.info/sonde.php?sondenumb
PP5UF-6S23407442021-07-20 00:58:40-27.2459-47.4594541066891Clb=-10.7m/s t=-21.8C 405.301 MHz Type=RS41-SGP Vaisala http://sondehub.org/S2340744 https://radiosondy.info/sonde.php?sondenumb
PP5UF-6S23407442021-07-20 00:58:20-27.2491-47.4641531047087Clb=-12.9m/s t=-23.7C 405.301 MHz Type=RS41-SGP Vaisala http://sondehub.org/S2340744 https://radiosondy.info/sonde.php?sondenumb
PP5UF-6S23407442021-07-20 00:58:00-27.2525-47.469511067351Clb=-12.1m/s t=-26.3C 405.301 MHz Type=RS41-SGP Vaisala http://sondehub.org/S2340744 https://radiosondy.info/sonde.php?sondenumb
PP5UF-6S23407442021-07-20 00:57:40-27.256-47.4739511047606Clb=-12.2m/s t=-28.7C 405.301 MHz Type=RS41-SGP Vaisala http://sondehub.org/S2340744 https://radiosondy.info/sonde.php?sondenumb
PP5UF-6S23407442021-07-20 00:57:20-27.259-47.477848947825Clb=-13.0m/s t=-30.6C 405.301 MHz Type=RS41-SGP Vaisala http://sondehub.org/S2340744 https://radiosondy.info/sonde.php?sondenumb
PP5UF-6S23407442021-07-20 00:57:00-27.2623-47.481745918061Clb=-12.8m/s t=-32.8C 405.301 MHz Type=RS41-SGP Vaisala http://sondehub.org/S2340744 https://radiosondy.info/sonde.php?sondenumb
PP5UF-6S23407442021-07-20 00:56:40-27.2654-47.485646918302Clb=-13.6m/s t=-35.0C 405.301 MHz Type=RS41-SGP Vaisala http://sondehub.org/S2340744 https://radiosondy.info/sonde.php?sondenumb
PP5UF-6S23407442021-07-20 00:56:00-27.2713-47.493256898753Clb=-11.3m/s t=-38.3C 405.301 MHz Type=RS41-SGP Vaisala http://sondehub.org/S2340744 https://radiosondy.info/sonde.php?sondenumb
PP5UF-6S23407442021-07-20 00:55:40-27.2734-47.497764948967Clb=-11.0m/s t=-39.7C 405.301 MHz Type=RS41-SGP Vaisala http://sondehub.org/S2340744 https://radiosondy.info/sonde.php?sondenumb
PP5UF-6S23407442021-07-20 00:55:20-27.2754-47.503681079167Clb=-9.3m/s t=-41.3C 405.301 MHz Type=RS41-SGP Vaisala http://sondehub.org/S2340744 https://radiosondy.info/sonde.php?sondenumbe
PP5UF-6S23407442021-07-20 00:55:00-27.2773-47.5088701139363Clb=-9.5m/s t=-43.0C 405.301 MHz Type=RS41-SGP Vaisala http://sondehub.org/S2340744 https://radiosondy.info/sonde.php?sondenumbe
PP5UF-6S23407442021-07-20 00:54:40-27.2793-47.5151711209553Clb=-10.0m/s t=-44.8C 405.301 MHz Type=RS41-SGP Vaisala http://sondehub.org/S2340744 https://radiosondy.info/sonde.php?sondenumb
PP5UF-6S23407442021-07-20 00:54:20-27.2811-47.5215721209758Clb=-11.1m/s t=-46.7C 405.301 MHz Type=RS41-SGP Vaisala http://sondehub.org/S2340744 https://radiosondy.info/sonde.php?sondenumb
PP5UF-6S23407442021-07-20 00:54:00-27.283-47.528711229965Clb=-11.2m/s t=-48.7C 405.301 MHz Type=RS41-SGP Vaisala http://sondehub.org/S2340744 https://radiosondy.info/sonde.php?sondenumb
PP5UF-6S23407442021-07-20 00:53:40-27.2852-47.53466712810210Clb=-14.2m/s t=-50.9C 405.301 MHz Type=RS41-SGP Vaisala http://sondehub.org/S2340744 https://radiosondy.info/sonde.php?sondenumb
PP5UF-6S23407442021-07-20 00:53:20-27.2877-47.54217113510465Clb=-11.6m/s t=-52.8C 405.301 MHz Type=RS41-SGP Vaisala http://sondehub.org/S2340744 https://radiosondy.info/sonde.php?sondenumb
PP5UF-6S23407442021-07-20 00:53:00-27.2896-47.54927414410695Clb=-12.6m/s t=-53.9C 405.301 MHz Type=RS41-SGP Vaisala http://sondehub.org/S2340744 https://radiosondy.info/sonde.php?sondenumb
PP5UF-6S23407442021-07-20 00:52:40-27.292-47.55756816910949Clb=-13.2m/s t=-53.7C 405.301 MHz Type=RS41-SGP Vaisala http://sondehub.org/S2340744 https://radiosondy.info/sonde.php?sondenumb
PP5UF-6S23407442021-07-20 00:52:20-27.2955-47.56646217011209Clb=-12.8m/s t=-54.4C 405.301 MHz Type=RS41-SGP Vaisala http://sondehub.org/S2340744 https://radiosondy.info/sonde.php?sondenumb
PP5UF-6S23407442021-07-20 00:52:00-27.2993-47.57526817811474Clb=-14.7m/s t=-55.0C 405.301 MHz Type=RS41-SGP Vaisala http://sondehub.org/S2340744 https://radiosondy.info/sonde.php?sondenumb
PP5UF-6S23407442021-07-20 00:51:40-27.3024-47.58516919111735Clb=-13.2m/s t=-56.8C 405.301 MHz Type=RS41-SGP Vaisala http://sondehub.org/S2340744 https://radiosondy.info/sonde.php?sondenumb
PP5UF-6S23407442021-07-20 00:51:20-27.3059-47.59516719311997Clb=-13.6m/s t=-58.6C 405.301 MHz Type=RS41-SGP Vaisala http://sondehub.org/S2340744 https://radiosondy.info/sonde.php?sondenumb
PP5UF-6S23407442021-07-20 00:51:00-27.31-47.60476218312261Clb=-13.5m/s t=-59.8C 405.301 MHz Type=RS41-SGP Vaisala http://sondehub.org/S2340744 https://radiosondy.info/sonde.php?sondenumb
PP5UF-6S23407442021-07-20 00:50:40-27.314-47.6136314812535Clb=-13.0m/s t=-58.0C 405.301 MHz Type=RS41-SGP Vaisala http://sondehub.org/S2340744 https://radiosondy.info/sonde.php?sondenumb
PP5UF-6S23407442021-07-20 00:50:20-27.3166-47.62057514312813Clb=-15.1m/s t=-57.2C 405.301 MHz Type=RS41-SGP Vaisala http://sondehub.org/S2340744 https://radiosondy.info/sonde.php?sondenumb
PP5UF-6S23407442021-07-20 00:49:40-27.3191-47.63698513913394Clb=-16.1m/s t=-58.9C 405.301 MHz Type=RS41-SGP Vaisala http://sondehub.org/S2340744 https://radiosondy.info/sonde.php?sondenumb
PP5UF-6S23407442021-07-20 00:49:20-27.3192-47.6459114813686Clb=-14.8m/s t=-58.3C 405.301 MHz Type=RS41-SGP Vaisala http://sondehub.org/S2340744 https://radiosondy.info/sonde.php?sondenumb
PP5UF-6S23407442021-07-20 00:49:00-27.3193-47.65368615713945Clb=-15.4m/s t=-57.4C 405.301 MHz Type=RS41-SGP Vaisala http://sondehub.org/S2340744 https://radiosondy.info/sonde.php?sondenumb
PP5UF-6S23407442021-07-20 00:48:40-27.32-47.66248314614256Clb=-15.6m/s t=-58.7C 405.301 MHz Type=RS41-SGP Vaisala http://sondehub.org/S2340744 https://radiosondy.info/sonde.php?sondenumb
PP5UF-6S23407442021-07-20 00:48:20-27.3209-47.66988211914555Clb=-15.6m/s t=-58.9C 405.301 MHz Type=RS41-SGP Vaisala http://sondehub.org/S2340744 https://radiosondy.info/sonde.php?sondenumb
PP5UF-6S23407442021-07-20 00:48:00-27.3214-47.67688512414853Clb=-17.7m/s t=-59.2C 405.301 MHz Type=RS41-SGP Vaisala http://sondehub.org/S2340744 https://radiosondy.info/sonde.php?sondenumb
PP5UF-6S23407442021-07-20 00:47:40-27.3225-47.68337110215240Clb=-20.6m/s t=-60.4C 405.301 MHz Type=RS41-SGP Vaisala http://sondehub.org/S2340744 https://radiosondy.info/sonde.php?sondenumb
PP5UF-6S23407442021-07-20 00:47:20-27.3239-47.6879718015664Clb=-21.4m/s t=-62.4C 405.301 MHz Type=RS41-SGP Vaisala http://sondehub.org/S2340744 https://radiosondy.info/sonde.php?sondenumb
PP5UF-6S23407442021-07-20 00:47:00-27.3251-47.6923789116099Clb=-22.1m/s t=-63.2C 405.301 MHz Type=RS41-SGP Vaisala http://sondehub.org/S2340744 https://radiosondy.info/sonde.php?sondenumb
PP5UF-6S23407442021-07-20 00:46:40-27.3257-47.6973887416540Clb=-21.9m/s t=-64.6C 405.301 MHz Type=RS41-SGP Vaisala http://sondehub.org/S2340744 https://radiosondy.info/sonde.php?sondenumb
PP5UF-6S23407442021-07-20 00:46:20-27.3255-47.7021928916990Clb=-22.9m/s t=-63.5C 405.301 MHz Type=RS41-SGP Vaisala http://sondehub.org/S2340744 https://radiosondy.info/sonde.php?sondenumb
PP5UF-6S23407442021-07-20 00:46:00-27.3255-47.707838517457Clb=-25.1m/s t=-62.8C 405.301 MHz Type=RS41-SGP Vaisala http://sondehub.org/S2340744 https://radiosondy.info/sonde.php?sondenumb
PP5UF-6S23407442021-07-20 00:45:40-27.3259-47.71121085418010Clb=-23.8m/s t=-62.3C 405.301 MHz Type=RS41-SGP Vaisala http://sondehub.org/S2340744 https://radiosondy.info/sonde.php?sondenumb
PP5UF-6S23407442021-07-20 00:45:20-27.3248-47.71411015218447Clb=-22.6m/s t=-59.4C 405.301 MHz Type=RS41-SGP Vaisala http://sondehub.org/S2340744 https://radiosondy.info/sonde.php?sondenumb
PP5UF-6S23407442021-07-20 00:45:00-27.3239-47.71721107018839Clb=-21.5m/s t=-60.0C 405.301 MHz Type=RS41-SGP Vaisala http://sondehub.org/S2340744 https://radiosondy.info/sonde.php?sondenumb
PP5UF-6S23407442021-07-20 00:44:40-27.3226-47.7215947219286Clb=-21.5m/s t=-60.4C 405.301 MHz Type=RS41-SGP Vaisala http://sondehub.org/S2340744 https://radiosondy.info/sonde.php?sondenumb
PP5UF-6S23407442021-07-20 00:44:20-27.323-47.725754819726Clb=-23.9m/s t=-59.7C 405.301 MHz Type=RS41-SGP Vaisala http://sondehub.org/S2340744 https://radiosondy.info/sonde.php?sondenumb
PP5UF-6S23407442021-07-20 00:44:00-27.3239-47.7275595420239Clb=-28.7m/s t=-59.5C 405.301 MHz Type=RS41-SGP Vaisala http://sondehub.org/S2340744 https://radiosondy.info/sonde.php?sondenumb
PP5UF-6S23407442021-07-20 00:43:40-27.326-47.7302424420840Clb=-21.1m/s t=-59.5C 405.301 MHz Type=RS41-SGP Vaisala http://sondehub.org/S2340744 https://radiosondy.info/sonde.php?sondenumb
PP5UF-6S23407442021-07-20 00:43:20-27.3263-47.73131093121286Clb=-25.3m/s t=-60.5C 405.301 MHz Type=RS41-SGP Vaisala http://sondehub.org/S2340744 https://radiosondy.info/sonde.php?sondenumb
PP5UF-6S23407442021-07-20 00:43:00-27.3256-47.7339925021780Clb=-22.8m/s t=-57.1C 405.301 MHz Type=RS41-SGP Vaisala http://sondehub.org/S2340744 https://radiosondy.info/sonde.php?sondenumb
PP5UF-6S23407442021-07-20 00:42:40-27.3256-47.7363874322185Clb=-21.8m/s t=-55.5C 405.301 MHz Type=RS41-SGP Vaisala http://sondehub.org/S2340744 https://radiosondy.info/sonde.php?sondenumb
PY2PE-11S23407442021-07-20 00:42:30-27.3256-47.7388845722523Clb=-18.5m/s t=-273.0C h=-1.0% p=-1.0hPa 405.300 MHz Type=RS41-SGP Radiosonde auto_rx v1.5.4
PP5UF-6S23407442021-07-20 00:42:20-27.3257-47.7393845622578Clb=-18.9m/s t=-54.5C 405.301 MHz Type=RS41-SGP Vaisala http://sondehub.org/S2340744 https://radiosondy.info/sonde.php?sondenumb
PY2PE-11S23407442021-07-20 00:42:00-27.326-47.744776523150Clb=-20.0m/s t=-273.0C h=-1.0% p=-1.0hPa 405.300 MHz Type=RS41-SGP Radiosonde auto_rx v1.5.4
PP5UF-6S23407442021-07-20 00:41:40-27.3264-47.7457645423404Clb=-25.6m/s t=-55.2C 405.301 MHz Type=RS41-SGP Vaisala http://sondehub.org/S2340744 https://radiosondy.info/sonde.php?sondenumb
PP5UF-6S23407442021-07-20 00:41:20-27.3276-47.7481624123916Clb=-25.8m/s t=-55.8C 405.301 MHz Type=RS41-SGP Vaisala http://sondehub.org/S2340744 https://radiosondy.info/sonde.php?sondenumb
PP5UF-6S23407442021-07-20 00:41:00-27.3287-47.7504644824442Clb=-28.6m/s t=-54.9C 405.301 MHz Type=RS41-SGP Vaisala http://sondehub.org/S2340744 https://radiosondy.info/sonde.php?sondenumb
PP5UF-6S23407442021-07-20 00:40:40-27.3297-47.7536745225121Clb=-27.8m/s t=-54.2C 405.301 MHz Type=RS41-SGP Vaisala http://sondehub.org/S2340744 https://radiosondy.info/sonde.php?sondenumb
PP5UF-6S23407442021-07-20 00:40:20-27.3301-47.7557875625500Clb=-21.8m/s t=-54.3C 405.301 MHz Type=RS41-SGP Vaisala http://sondehub.org/S2340744 https://radiosondy.info/sonde.php?sondenumb
PP5UF-6S23407442021-07-20 00:40:00-27.3302-47.7584573725972Clb=-18.4m/s t=-55.6C 405.301 MHz Type=RS41-SGP Vaisala http://sondehub.org/S2340744 https://radiosondy.info/sonde.php?sondenumb
PP5UF-6S23407442021-07-20 00:39:40-27.3311-47.7601533926032Clb=6.1m/s t=-55.8C 405.301 MHz Type=RS41-SGP Vaisala http://sondehub.org/S2340744 https://radiosondy.info/sonde.php?sondenumber
PP5UF-6S23407442021-07-20 00:39:20-27.3318-47.7621834125897Clb=7.0m/s t=-55.5C 405.301 MHz Type=RS41-SGP Vaisala http://sondehub.org/S2340744 https://radiosondy.info/sonde.php?sondenumber
PP5UF-6S23407442021-07-20 00:39:00-27.3319-47.76461173525758Clb=7.8m/s t=-55.4C 405.301 MHz Type=RS41-SGP Vaisala http://sondehub.org/S2340744 https://radiosondy.info/sonde.php?sondenumber
PP5UF-6S23407442021-07-20 00:38:40-27.3319-47.7677847225624Clb=7.8m/s t=-55.0C 405.301 MHz Type=RS41-SGP Vaisala http://sondehub.org/S2340744 https://radiosondy.info/sonde.php?sondenumber
PP5UF-6S23407442021-07-20 00:38:20-27.3321-47.7712845425488Clb=8.0m/s t=-54.1C 405.301 MHz Type=RS41-SGP Vaisala http://sondehub.org/S2340744 https://radiosondy.info/sonde.php?sondenumber
PP5UF-6S23407442021-07-20 00:38:00-27.3323-47.7739773525351Clb=7.8m/s t=-54.1C 405.301 MHz Type=RS41-SGP Vaisala http://sondehub.org/S2340744 https://radiosondy.info/sonde.php?sondenumber
PP5UF-6S23407442021-07-20 00:37:40-27.333-47.7766724625219Clb=5.5m/s t=-54.3C 405.301 MHz Type=RS41-SGP Vaisala http://sondehub.org/S2340744 https://radiosondy.info/sonde.php?sondenumber
PP5UF-6S23407442021-07-20 00:37:20-27.3336-47.7792785425095Clb=6.8m/s t=-54.6C 405.301 MHz Type=RS41-SGP Vaisala http://sondehub.org/S2340744 https://radiosondy.info/sonde.php?sondenumber
PP5UF-6S23407442021-07-20 00:37:00-27.3343-47.7821705924969Clb=5.7m/s t=-54.2C 405.301 MHz Type=RS41-SGP Vaisala http://sondehub.org/S2340744 https://radiosondy.info/sonde.php?sondenumber
PP5UF-6S23407442021-07-20 00:36:40-27.3349-47.7848804624846Clb=5.3m/s t=-54.2C 405.301 MHz Type=RS41-SGP Vaisala http://sondehub.org/S2340744 https://radiosondy.info/sonde.php?sondenumber
PP5UF-6S23407442021-07-20 00:36:20-27.3354-47.7874833924723Clb=5.3m/s t=-55.1C 405.301 MHz Type=RS41-SGP Vaisala http://sondehub.org/S2340744 https://radiosondy.info/sonde.php?sondenumber
PP5UF-6S23407442021-07-20 00:36:00-27.3363-47.7897494624605Clb=5.6m/s t=-55.6C 405.301 MHz Type=RS41-SGP Vaisala http://sondehub.org/S2340744 https://radiosondy.info/sonde.php?sondenumber
PP5UF-6S23407442021-07-20 00:35:40-27.3377-47.792635724485Clb=7.2m/s t=-55.7C 405.301 MHz Type=RS41-SGP Vaisala http://sondehub.org/S2340744 https://radiosondy.info/sonde.php?sondenumber
PP5UF-6S23407442021-07-20 00:35:20-27.3387-47.7942564424361Clb=5.0m/s t=-55.7C 405.301 MHz Type=RS41-SGP Vaisala http://sondehub.org/S2340744 https://radiosondy.info/sonde.php?sondenumber
PP5UF-6S23407442021-07-20 00:35:00-27.3401-47.7963564824240Clb=5.2m/s t=-56.2C 405.301 MHz Type=RS41-SGP Vaisala http://sondehub.org/S2340744 https://radiosondy.info/sonde.php?sondenumber
PP5UF-6S23407442021-07-20 00:34:40-27.341-47.7983623024119Clb=6.5m/s t=-56.0C 405.301 MHz Type=RS41-SGP Vaisala http://sondehub.org/S2340744 https://radiosondy.info/sonde.php?sondenumber
PP5UF-6S23407442021-07-20 00:34:20-27.3421-47.7998443923997Clb=6.5m/s t=-56.1C 405.301 MHz Type=RS41-SGP Vaisala http://sondehub.org/S2340744 https://radiosondy.info/sonde.php?sondenumber
PP5UF-6S23407442021-07-20 00:34:00-27.3434-47.8017594423874Clb=6.5m/s t=-55.7C 405.301 MHz Type=RS41-SGP Vaisala http://sondehub.org/S2340744 https://radiosondy.info/sonde.php?sondenumber
PP5UF-6S23407442021-07-20 00:33:40-27.3443-47.8037593723759Clb=5.0m/s t=-55.9C 405.301 MHz Type=RS41-SGP Vaisala http://sondehub.org/S2340744 https://radiosondy.info/sonde.php?sondenumber
PP5UF-6S23407442021-07-20 00:33:20-27.3458-47.806445723640Clb=6.7m/s t=-55.9C 405.301 MHz Type=RS41-SGP Vaisala http://sondehub.org/S2340744 https://radiosondy.info/sonde.php?sondenumber
PP5UF-6S23407442021-07-20 00:33:00-27.3475-47.8082565023520Clb=7.4m/s t=-55.3C 405.301 MHz Type=RS41-SGP Vaisala http://sondehub.org/S2340744 https://radiosondy.info/sonde.php?sondenumber
PP5UF-6S23407442021-07-20 00:32:40-27.3486-47.8106614423400Clb=6.0m/s t=-55.8C 405.301 MHz Type=RS41-SGP Vaisala http://sondehub.org/S2340744 https://radiosondy.info/sonde.php?sondenumber
PP5UF-6S23407442021-07-20 00:32:20-27.3495-47.8137665223279Clb=5.7m/s t=-56.3C 405.301 MHz Type=RS41-SGP Vaisala http://sondehub.org/S2340744 https://radiosondy.info/sonde.php?sondenumber
PP5UF-6S23407442021-07-20 00:32:00-27.3507-47.8172776323149Clb=6.3m/s t=-56.5C 405.301 MHz Type=RS41-SGP Vaisala http://sondehub.org/S2340744 https://radiosondy.info/sonde.php?sondenumber
PP5UF-6S23407442021-07-20 00:31:40-27.3512-47.8207816123025Clb=5.4m/s t=-56.7C 405.301 MHz Type=RS41-SGP Vaisala http://sondehub.org/S2340744 https://radiosondy.info/sonde.php?sondenumber
PP5UF-6S23407442021-07-20 00:31:20-27.3514-47.824845922901Clb=6.5m/s t=-57.2C 405.301 MHz Type=RS41-SGP Vaisala http://sondehub.org/S2340744 https://radiosondy.info/sonde.php?sondenumber
PP5UF-6S23407442021-07-20 00:31:00-27.3517-47.8272805722769Clb=6.7m/s t=-56.0C 405.301 MHz Type=RS41-SGP Vaisala http://sondehub.org/S2340744 https://radiosondy.info/sonde.php?sondenumber
PP5UF-6S23407442021-07-20 00:30:40-27.3521-47.8304855622638Clb=6.7m/s t=-54.9C 405.301 MHz Type=RS41-SGP Vaisala http://sondehub.org/S2340744 https://radiosondy.info/sonde.php?sondenumber
PP5UF-6S23407442021-07-20 00:30:20-27.3525-47.8335805022502Clb=6.0m/s t=-54.8C 405.301 MHz Type=RS41-SGP Vaisala http://sondehub.org/S2340744 https://radiosondy.info/sonde.php?sondenumber
PP5UF-6S23407442021-07-20 00:30:00-27.3527-47.8368785922374Clb=5.6m/s t=-55.3C 405.301 MHz Type=RS41-SGP Vaisala http://sondehub.org/S2340744 https://radiosondy.info/sonde.php?sondenumber
PP5UF-6S23407442021-07-20 00:29:40-27.3531-47.8398834822248Clb=7.9m/s t=-55.7C 405.301 MHz Type=RS41-SGP Vaisala http://sondehub.org/S2340744 https://radiosondy.info/sonde.php?sondenumber
PP5UF-6S23407442021-07-20 00:29:20-27.3533-47.8421893922119Clb=7.9m/s t=-55.4C 405.301 MHz Type=RS41-SGP Vaisala http://sondehub.org/S2340744 https://radiosondy.info/sonde.php?sondenumber
PP5UF-6S23407442021-07-20 00:29:00-27.3532-47.8446814121995Clb=4.1m/s t=-55.3C 405.301 MHz Type=RS41-SGP Vaisala http://sondehub.org/S2340744 https://radiosondy.info/sonde.php?sondenumber
PP5UF-6S23407442021-07-20 00:28:40-27.3534-47.8475945621868Clb=6.9m/s t=-57.4C 405.301 MHz Type=RS41-SGP Vaisala http://sondehub.org/S2340744 https://radiosondy.info/sonde.php?sondenumber
PP5UF-6S23407442021-07-20 00:28:20-27.3531-47.85071015621750Clb=5.0m/s t=-57.2C 405.301 MHz Type=RS41-SGP Vaisala http://sondehub.org/S2340744 https://radiosondy.info/sonde.php?sondenumber
PP5UF-6S23407442021-07-20 00:28:00-27.3527-47.85381095621630Clb=5.4m/s t=-57.7C 405.301 MHz Type=RS41-SGP Vaisala http://sondehub.org/S2340744 https://radiosondy.info/sonde.php?sondenumber
PP5UF-6S23407442021-07-20 00:27:40-27.3517-47.85651144621513Clb=6.5m/s t=-58.3C 405.301 MHz Type=RS41-SGP Vaisala http://sondehub.org/S2340744 https://radiosondy.info/sonde.php?sondenumber
PP5UF-6S23407442021-07-20 00:27:20-27.3507-47.85871163021393Clb=6.0m/s t=-61.1C 405.301 MHz Type=RS41-SGP Vaisala http://sondehub.org/S2340744 https://radiosondy.info/sonde.php?sondenumber
PP5UF-6S23407442021-07-20 00:27:00-27.3502-47.8602962021268Clb=6.9m/s t=-60.7C 405.301 MHz Type=RS41-SGP Vaisala http://sondehub.org/S2340744 https://radiosondy.info/sonde.php?sondenumber
PP5UF-6S23407442021-07-20 00:26:40-27.3503-47.8613682421151Clb=7.7m/s t=-60.4C 405.301 MHz Type=RS41-SGP Vaisala http://sondehub.org/S2340744 https://radiosondy.info/sonde.php?sondenumber
PP5UF-6S23407442021-07-20 00:26:20-27.3512-47.8627523021028Clb=5.1m/s t=-60.5C 405.301 MHz Type=RS41-SGP Vaisala http://sondehub.org/S2340744 https://radiosondy.info/sonde.php?sondenumber
PP5UF-6S23407442021-07-20 00:26:00-27.3527-47.8642364620905Clb=7.0m/s t=-60.0C 405.301 MHz Type=RS41-SGP Vaisala http://sondehub.org/S2340744 https://radiosondy.info/sonde.php?sondenumber
PP5UF-6S23407442021-07-20 00:25:40-27.3547-47.8661475220775Clb=6.7m/s t=-60.3C 405.301 MHz Type=RS41-SGP Vaisala http://sondehub.org/S2340744 https://radiosondy.info/sonde.php?sondenumber
PP5UF-6S23407442021-07-20 00:25:20-27.3565-47.8687536520645Clb=5.0m/s t=-60.6C 405.301 MHz Type=RS41-SGP Vaisala http://sondehub.org/S2340744 https://radiosondy.info/sonde.php?sondenumber
PP5UF-6S23407442021-07-20 00:25:00-27.3579-47.8718755920498Clb=6.6m/s t=-60.5C 405.301 MHz Type=RS41-SGP Vaisala http://sondehub.org/S2340744 https://radiosondy.info/sonde.php?sondenumber
PP5UF-6S23407442021-07-20 00:24:40-27.3587-47.8748664620366Clb=6.5m/s t=-59.9C 405.301 MHz Type=RS41-SGP Vaisala http://sondehub.org/S2340744 https://radiosondy.info/sonde.php?sondenumber
PP5UF-6S23407442021-07-20 00:24:20-27.3597-47.8774724820229Clb=6.7m/s t=-59.6C 405.301 MHz Type=RS41-SGP Vaisala http://sondehub.org/S2340744 https://radiosondy.info/sonde.php?sondenumber
PP5UF-6S23407442021-07-20 00:24:00-27.3603-47.88795220094Clb=6.0m/s t=-59.8C 405.301 MHz Type=RS41-SGP Vaisala http://sondehub.org/S2340744 https://radiosondy.info/sonde.php?sondenumber
PP5UF-6S23407442021-07-20 00:23:40-27.3604-47.8827804419957Clb=6.7m/s t=-58.9C 405.301 MHz Type=RS41-SGP Vaisala http://sondehub.org/S2340744 https://radiosondy.info/sonde.php?sondenumber
PP5UF-6S23407442021-07-20 00:23:20-27.3608-47.8849783519827Clb=6.6m/s t=-59.2C 405.301 MHz Type=RS41-SGP Vaisala http://sondehub.org/S2340744 https://radiosondy.info/sonde.php?sondenumber
PP5UF-6S23407442021-07-20 00:23:00-27.3611-47.8875875019686Clb=10.0m/s t=-59.0C 405.301 MHz Type=RS41-SGP Vaisala http://sondehub.org/S2340744 https://radiosondy.info/sonde.php?sondenumbe
PP5UF-6S23407442021-07-20 00:22:40-27.3613-47.8909836319546Clb=9.5m/s t=-59.1C 405.301 MHz Type=RS41-SGP Vaisala http://sondehub.org/S2340744 https://radiosondy.info/sonde.php?sondenumber
PP5UF-6S23407442021-07-20 00:22:20-27.3612-47.8944895619415Clb=9.1m/s t=-60.3C 405.301 MHz Type=RS41-SGP Vaisala http://sondehub.org/S2340744 https://radiosondy.info/sonde.php?sondenumber
PP5UF-6S23407442021-07-20 00:22:00-27.361-47.89821037019285Clb=11.1m/s t=-60.4C 405.301 MHz Type=RS41-SGP Vaisala http://sondehub.org/S2340744 https://radiosondy.info/sonde.php?sondenumbe
PP5UF-6S23407442021-07-20 00:21:40-27.3598-47.90261098119151Clb=3.3m/s t=-60.1C 405.301 MHz Type=RS41-SGP Vaisala http://sondehub.org/S2340744 https://radiosondy.info/sonde.php?sondenumber
PP5UF-6S23407442021-07-20 00:21:20-27.3579-47.90741178019022Clb=5.0m/s t=-60.8C 405.301 MHz Type=RS41-SGP Vaisala http://sondehub.org/S2340744 https://radiosondy.info/sonde.php?sondenumber
PP5UF-6S23407442021-07-20 00:21:00-27.3562-47.91181088018877Clb=10.8m/s t=-59.9C 405.301 MHz Type=RS41-SGP Vaisala http://sondehub.org/S2340744 https://radiosondy.info/sonde.php?sondenumbe
PP5UF-6S23407442021-07-20 00:20:40-27.3549-47.91551127218747Clb=8.6m/s t=-59.3C 405.301 MHz Type=RS41-SGP Vaisala http://sondehub.org/S2340744 https://radiosondy.info/sonde.php?sondenumber
PP5UF-6S23407442021-07-20 00:20:20-27.3539-47.9191036718611Clb=10.5m/s t=-60.0C 405.301 MHz Type=RS41-SGP Vaisala http://sondehub.org/S2340744 https://radiosondy.info/sonde.php?sondenumbe
PP5UF-6S23407442021-07-20 00:20:00-27.3534-47.9221985918472Clb=4.4m/s t=-60.2C 405.301 MHz Type=RS41-SGP Vaisala http://sondehub.org/S2340744 https://radiosondy.info/sonde.php?sondenumber
PP5UF-6S23407442021-07-20 00:19:40-27.3525-47.9261056918328Clb=4.1m/s t=-62.0C 405.301 MHz Type=RS41-SGP Vaisala http://sondehub.org/S2340744 https://radiosondy.info/sonde.php?sondenumber
PP5UF-6S23407442021-07-20 00:19:20-27.3518-47.92881104118193Clb=4.9m/s t=-62.7C 405.301 MHz Type=RS41-SGP Vaisala http://sondehub.org/S2340744 https://radiosondy.info/sonde.php?sondenumber
PP5UF-6S23407442021-07-20 00:19:00-27.3516-47.9312804318055Clb=9.9m/s t=-63.9C 405.301 MHz Type=RS41-SGP Vaisala http://sondehub.org/S2340744 https://radiosondy.info/sonde.php?sondenumber
PP5UF-6S23407442021-07-20 00:18:40-27.3524-47.9339725717925Clb=6.7m/s t=-63.5C 405.301 MHz Type=RS41-SGP Vaisala http://sondehub.org/S2340744 https://radiosondy.info/sonde.php?sondenumber
PP5UF-6S23407442021-07-20 00:18:20-27.3532-47.9372766317777Clb=4.0m/s t=-63.7C 405.301 MHz Type=RS41-SGP Vaisala http://sondehub.org/S2340744 https://radiosondy.info/sonde.php?sondenumber
PP5UF-6S23407442021-07-20 00:18:00-27.3543-47.9414727817639Clb=7.3m/s t=-64.0C 405.301 MHz Type=RS41-SGP Vaisala http://sondehub.org/S2340744 https://radiosondy.info/sonde.php?sondenumber
PP5UF-6S23407442021-07-20 00:17:40-27.3552-47.9458788717518Clb=5.3m/s t=-63.4C 405.301 MHz Type=RS41-SGP Vaisala http://sondehub.org/S2340744 https://radiosondy.info/sonde.php?sondenumber
PP5UF-6S23407442021-07-20 00:17:20-27.3558-47.9509948017396Clb=8.9m/s t=-63.9C 405.301 MHz Type=RS41-SGP Vaisala http://sondehub.org/S2340744 https://radiosondy.info/sonde.php?sondenumber
PP5UF-6S23407442021-07-20 00:17:00-27.3554-47.955977617275Clb=5.6m/s t=-63.8C 405.301 MHz Type=RS41-SGP Vaisala http://sondehub.org/S2340744 https://radiosondy.info/sonde.php?sondenumber
PP5UF-6S23407442021-07-20 00:16:40-27.3557-47.9591837817138Clb=3.9m/s t=-63.9C 405.301 MHz Type=RS41-SGP Vaisala http://sondehub.org/S2340744 https://radiosondy.info/sonde.php?sondenumber
PP5UF-6S23407442021-07-20 00:16:20-27.3556-47.9638919417008Clb=6.1m/s t=-64.2C 405.301 MHz Type=RS41-SGP Vaisala http://sondehub.org/S2340744 https://radiosondy.info/sonde.php?sondenumber
PP5UF-6S23407442021-07-20 00:16:00-27.3552-47.9689998916883Clb=5.7m/s t=-64.1C 405.301 MHz Type=RS41-SGP Vaisala http://sondehub.org/S2340744 https://radiosondy.info/sonde.php?sondenumber
PP5UF-6S23407442021-07-20 00:15:40-27.3551-47.9737948116748Clb=10.4m/s t=-64.0C 405.301 MHz Type=RS41-SGP Vaisala http://sondehub.org/S2340744 https://radiosondy.info/sonde.php?sondenumbe
PY2PE-11S23407442021-07-20 00:15:30-27.3548-47.97741037616649Clb=4.6m/s t=-64.5C h=3.0% p=-1.0hPa 405.300 MHz Type=RS41-SGP Radiosonde auto_rx v1.5.4
PP5UF-6S23407442021-07-20 00:15:20-27.3547-47.978947216625Clb=8.9m/s t=-64.4C 405.301 MHz Type=RS41-SGP Vaisala http://sondehub.org/S2340744 https://radiosondy.info/sonde.php?sondenumber
PP5UF-6S23407442021-07-20 00:15:00-27.3549-47.9821787816487Clb=3.8m/s t=-64.1C 405.301 MHz Type=RS41-SGP Vaisala http://sondehub.org/S2340744 https://radiosondy.info/sonde.php?sondenumber
PP5UF-6S23407442021-07-20 00:14:40-27.3557-47.987858116338Clb=9.6m/s t=-63.5C 405.301 MHz Type=RS41-SGP Vaisala http://sondehub.org/S2340744 https://radiosondy.info/sonde.php?sondenumber
PP5UF-6S23407442021-07-20 00:14:20-27.3564-47.9914739316225Clb=7.1m/s t=-63.8C 405.301 MHz Type=RS41-SGP Vaisala http://sondehub.org/S2340744 https://radiosondy.info/sonde.php?sondenumber
PP5UF-6S23407442021-07-20 00:14:00-27.3575-47.9977310916095Clb=11.4m/s t=-63.0C 405.301 MHz Type=RS41-SGP Vaisala http://sondehub.org/S2340744 https://radiosondy.info/sonde.php?sondenumbe
PP5UF-6S23407442021-07-20 00:13:40-27.3591-48.0021749415927Clb=5.1m/s t=-61.5C 405.301 MHz Type=RS41-SGP Vaisala http://sondehub.org/S2340744 https://radiosondy.info/sonde.php?sondenumber
PP5UF-6S23407442021-07-20 00:13:20-27.3603-48.0069679115800Clb=6.3m/s t=-61.8C 405.301 MHz Type=RS41-SGP Vaisala http://sondehub.org/S2340744 https://radiosondy.info/sonde.php?sondenumber
PY2PE-11S23407442021-07-20 00:13:00-27.3619-48.0113738315676Clb=8.8m/s t=-61.9C h=2.6% p=-1.0hPa 405.300 MHz Type=RS41-SGP Radiosonde auto_rx v1.5.4
PP5UF-6S23407442021-07-20 00:12:40-27.3631-48.016748915552Clb=6.2m/s t=-61.4C 405.301 MHz Type=RS41-SGP Vaisala http://sondehub.org/S2340744 https://radiosondy.info/sonde.php?sondenumber
PP5UF-6S23407442021-07-20 00:12:20-27.3643-48.0207699115427Clb=9.8m/s t=-60.6C 405.301 MHz Type=RS41-SGP Vaisala http://sondehub.org/S2340744 https://radiosondy.info/sonde.php?sondenumber
PP5UF-6S23407442021-07-20 00:12:00-27.3659-48.02597611515299Clb=4.1m/s t=-60.6C 405.301 MHz Type=RS41-SGP Vaisala http://sondehub.org/S2340744 https://radiosondy.info/sonde.php?sondenumber
PP5UF-6S23407442021-07-20 00:11:40-27.3674-48.0327111915173Clb=7.4m/s t=-60.4C 405.301 MHz Type=RS41-SGP Vaisala http://sondehub.org/S2340744 https://radiosondy.info/sonde.php?sondenumber
PY2PE-11S23407442021-07-20 00:11:30-27.3684-48.03597712815085Clb=7.5m/s t=-59.9C h=2.4% p=-1.0hPa 405.300 MHz Type=RS41-SGP Radiosonde auto_rx v1.5.4
PP5UF-6S23407442021-07-20 00:11:20-27.3689-48.03868112615031Clb=9.2m/s t=-60.1C 405.301 MHz Type=RS41-SGP Vaisala http://sondehub.org/S2340744 https://radiosondy.info/sonde.php?sondenumber
PY2PE-11S23407442021-07-20 00:11:00-27.3694-48.0478512614889Clb=7.5m/s t=-60.2C h=-1.0% p=-1.0hPa 405.300 MHz Type=RS41-SGP Radiosonde auto_rx v1.5.4
PP5UF-6S23407442021-07-20 00:10:40-27.37-48.05327912614785Clb=5.7m/s t=-59.7C 405.301 MHz Type=RS41-SGP Vaisala http://sondehub.org/S2340744 https://radiosondy.info/sonde.php?sondenumber
PY2PE-11S23407442021-07-20 00:10:30-27.3706-48.05787712214702Clb=9.5m/s t=-59.3C h=-1.0% p=-1.0hPa 405.300 MHz Type=RS41-SGP Radiosonde auto_rx v1.5.4
PP5UF-6S23407442021-07-20 00:10:20-27.3711-48.06027913014656Clb=9.5m/s t=-59.1C 405.301 MHz Type=RS41-SGP Vaisala http://sondehub.org/S2340744 https://radiosondy.info/sonde.php?sondenumber
PP5UF-6S23407442021-07-20 00:10:00-27.3723-48.06728112214538Clb=6.0m/s t=-58.8C 405.301 MHz Type=RS41-SGP Vaisala http://sondehub.org/S2340744 https://radiosondy.info/sonde.php?sondenumber
PP5UF-6S23407442021-07-20 00:09:40-27.3734-48.07427613014419Clb=7.7m/s t=-59.3C 405.301 MHz Type=RS41-SGP Vaisala http://sondehub.org/S2340744 https://radiosondy.info/sonde.php?sondenumber
PY2PE-11S23407442021-07-20 00:09:30-27.3741-48.07868115614328Clb=9.5m/s t=-59.5C h=-1.0% p=-1.0hPa 405.300 MHz Type=RS41 Radiosonde auto_rx v1.5.4
PP5UF-6S23407442021-07-20 00:09:20-27.3746-48.08248115214270Clb=4.8m/s t=-59.1C 405.301 MHz Type=RS41-SGP Vaisala http://sondehub.org/S2340744 https://radiosondy.info/sonde.php?sondenumber
PP5UF-6S23407442021-07-20 00:09:00-27.3758-48.09128215914134Clb=7.2m/s t=-58.7C 405.301 MHz Type=RS41-SGP Vaisala http://sondehub.org/S2340744 https://radiosondy.info/sonde.php?sondenumber
PP5UF-6S23407442021-07-20 00:08:40-27.3768-48.09988315614003Clb=6.0m/s t=-57.7C 405.301 MHz Type=RS41-SGP Vaisala http://sondehub.org/S2340744 https://radiosondy.info/sonde.php?sondenumber
PP5UF-6S23407442021-07-20 00:08:20-27.3776-48.10868515013882Clb=2.8m/s t=-57.8C 405.301 MHz Type=RS41-SGP Vaisala http://sondehub.org/S2340744 https://radiosondy.info/sonde.php?sondenumber
PP5UF-6S23407442021-07-20 00:08:00-27.3787-48.11698014813746Clb=9.7m/s t=-57.9C 405.301 MHz Type=RS41-SGP Vaisala http://sondehub.org/S2340744 https://radiosondy.info/sonde.php?sondenumber
PP5UF-6S23407442021-07-20 00:07:40-27.3799-48.1258014413613Clb=10.1m/s t=-58.5C 405.301 MHz Type=RS41-SGP Vaisala http://sondehub.org/S2340744 https://radiosondy.info/sonde.php?sondenumbe
PP5UF-6S23407442021-07-20 00:07:20-27.3808-48.13318313313485Clb=8.4m/s t=-59.0C 405.301 MHz Type=RS41-SGP Vaisala http://sondehub.org/S2340744 https://radiosondy.info/sonde.php?sondenumber
PP5UF-6S23407442021-07-20 00:07:00-27.3821-48.1417814413353Clb=4.3m/s t=-58.9C 405.301 MHz Type=RS41-SGP Vaisala http://sondehub.org/S2340744 https://radiosondy.info/sonde.php?sondenumber
PP5UF-6S23407442021-07-20 00:06:40-27.384-48.1497314613217Clb=6.5m/s t=-59.0C 405.301 MHz Type=RS41-SGP Vaisala http://sondehub.org/S2340744 https://radiosondy.info/sonde.php?sondenumber
PP5UF-6S23407442021-07-20 00:06:20-27.3862-48.15747415213074Clb=8.7m/s t=-57.6C 405.301 MHz Type=RS41-SGP Vaisala http://sondehub.org/S2340744 https://radiosondy.info/sonde.php?sondenumber
PP5UF-6S23407442021-07-20 00:06:00-27.3882-48.16557514612934Clb=3.9m/s t=-57.5C 405.301 MHz Type=RS41-SGP Vaisala http://sondehub.org/S2340744 https://radiosondy.info/sonde.php?sondenumber
PP5UF-6S23407442021-07-20 00:05:40-27.3904-48.17337115612791Clb=5.0m/s t=-57.4C 405.301 MHz Type=RS41-SGP Vaisala http://sondehub.org/S2340744 https://radiosondy.info/sonde.php?sondenumber
PP5UF-6S23407442021-07-20 00:05:20-27.3933-48.18146216112644Clb=6.1m/s t=-57.1C 405.301 MHz Type=RS41-SGP Vaisala http://sondehub.org/S2340744 https://radiosondy.info/sonde.php?sondenumber
PP5UF-6S23407442021-07-20 00:05:00-27.3971-48.18946216512468Clb=10.2m/s t=-57.9C 405.301 MHz Type=RS41-SGP Vaisala http://sondehub.org/S2340744 https://radiosondy.info/sonde.php?sondenumbe
PP5UF-6S23407442021-07-20 00:04:40-27.4013-48.19816219312299Clb=10.0m/s t=-58.6C 405.301 MHz Type=RS41-SGP Vaisala http://sondehub.org/S2340744 https://radiosondy.info/sonde.php?sondenumbe
PP5UF-6S23407442021-07-20 00:04:20-27.4054-48.20766519312137Clb=8.3m/s t=-58.6C 405.301 MHz Type=RS41-SGP Vaisala http://sondehub.org/S2340744 https://radiosondy.info/sonde.php?sondenumber
PP5UF-6S23407442021-07-20 00:04:00-27.4093-48.2186821511981Clb=5.3m/s t=-57.8C 405.301 MHz Type=RS41-SGP Vaisala http://sondehub.org/S2340744 https://radiosondy.info/sonde.php?sondenumber
PP5UF-6S23407442021-07-20 00:03:40-27.4128-48.22857518911823Clb=11.9m/s t=-57.2C 405.301 MHz Type=RS41-SGP Vaisala http://sondehub.org/S2340744 https://radiosondy.info/sonde.php?sondenumbe
PP5UF-6S23407442021-07-20 00:03:20-27.4156-48.23897919311662Clb=8.9m/s t=-56.2C 405.301 MHz Type=RS41-SGP Vaisala http://sondehub.org/S2340744 https://radiosondy.info/sonde.php?sondenumber
PP5UF-6S23407442021-07-20 00:03:00-27.4183-48.24947320411517Clb=10.5m/s t=-55.6C 405.301 MHz Type=RS41-SGP Vaisala http://sondehub.org/S2340744 https://radiosondy.info/sonde.php?sondenumbe
PP5UF-6S23407442021-07-20 00:02:40-27.4215-48.25866816711359Clb=3.6m/s t=-55.9C 405.301 MHz Type=RS41-SGP Vaisala http://sondehub.org/S2340744 https://radiosondy.info/sonde.php?sondenumber
PP5UF-6S23407442021-07-20 00:02:20-27.4242-48.26797416311207Clb=3.0m/s t=-56.0C 405.301 MHz Type=RS41-SGP Vaisala http://sondehub.org/S2340744 https://radiosondy.info/sonde.php?sondenumber
PP5UF-6S23407442021-07-20 00:02:00-27.4265-48.27667015611052Clb=7.0m/s t=-56.5C 405.301 MHz Type=RS41-SGP Vaisala http://sondehub.org/S2340744 https://radiosondy.info/sonde.php?sondenumber
PP5UF-6S23407442021-07-20 00:01:40-27.4282-48.28458113010915Clb=6.0m/s t=-56.2C 405.301 MHz Type=RS41-SGP Vaisala http://sondehub.org/S2340744 https://radiosondy.info/sonde.php?sondenumber
PP5UF-6S23407442021-07-20 00:01:20-27.4298-48.29197612610762Clb=8.5m/s t=-55.5C 405.301 MHz Type=RS41-SGP Vaisala http://sondehub.org/S2340744 https://radiosondy.info/sonde.php?sondenumber
PP5UF-6S23407442021-07-20 00:01:00-27.4314-48.2997113710624Clb=11.0m/s t=-54.4C 405.301 MHz Type=RS41-SGP Vaisala http://sondehub.org/S2340744 https://radiosondy.info/sonde.php?sondenumbe
PP5UF-6S23407442021-07-20 00:00:40-27.4335-48.30587312410470Clb=4.9m/s t=-53.0C 405.301 MHz Type=RS41-SGP Vaisala http://sondehub.org/S2340744 https://radiosondy.info/sonde.php?sondenumber
PP5UF-6S23407442021-07-20 00:00:20-27.4357-48.31247512410324Clb=5.9m/s t=-51.9C 405.301 MHz Type=RS41-SGP Vaisala http://sondehub.org/S2340744 https://radiosondy.info/sonde.php?sondenumber
PP5UF-6S23407442021-07-20 00:00:00-27.4378-48.31877110910184Clb=11.8m/s t=-50.7C 405.301 MHz Type=RS41-SGP Vaisala http://sondehub.org/S2340744 https://radiosondy.info/sonde.php?sondenumbe
PP5UF-6S23407442021-07-19 23:59:40-27.4398-48.32477211910049Clb=5.4m/s t=-49.6C 405.301 MHz Type=RS41-SGP Vaisala http://sondehub.org/S2340744 https://radiosondy.info/sonde.php?sondenumber
PP5UF-6S23407442021-07-19 23:59:20-27.4415-48.3306671069900Clb=8.2m/s t=-48.1C 405.301 MHz Type=RS41-SGP Vaisala http://sondehub.org/S2340744 https://radiosondy.info/sonde.php?sondenumber
PP5UF-6S23407442021-07-19 23:59:00-27.4439-48.3366721269764Clb=3.7m/s t=-46.8C 405.301 MHz Type=RS41-SGP Vaisala http://sondehub.org/S2340744 https://radiosondy.info/sonde.php?sondenumber
PP5UF-6S23407442021-07-19 23:58:40-27.4457-48.3426691209635Clb=5.8m/s t=-45.6C 405.301 MHz Type=RS41-SGP Vaisala http://sondehub.org/S2340744 https://radiosondy.info/sonde.php?sondenumber
PP5UF-6S23407442021-07-19 23:58:20-27.4478-48.3481551199503Clb=9.5m/s t=-44.6C 405.301 MHz Type=RS41-SGP Vaisala http://sondehub.org/S2340744 https://radiosondy.info/sonde.php?sondenumber
PP5UF-6S23407442021-07-19 23:58:00-27.4502-48.353263899343Clb=7.5m/s t=-43.0C 405.301 MHz Type=RS41-SGP Vaisala http://sondehub.org/S2340744 https://radiosondy.info/sonde.php?sondenumber
PP5UF-6S23407442021-07-19 23:57:40-27.4528-48.3581571209198Clb=6.3m/s t=-41.7C 405.301 MHz Type=RS41-SGP Vaisala http://sondehub.org/S2340744 https://radiosondy.info/sonde.php?sondenumber
PP5UF-6S23407442021-07-19 23:57:20-27.4555-48.3624531049066Clb=5.2m/s t=-40.6C 405.301 MHz Type=RS41-SGP Vaisala http://sondehub.org/S2340744 https://radiosondy.info/sonde.php?sondenumber
PP5UF-6S23407442021-07-19 23:57:00-27.4582-48.366760948930Clb=7.5m/s t=-39.4C 405.301 MHz Type=RS41-SGP Vaisala http://sondehub.org/S2340744 https://radiosondy.info/sonde.php?sondenumber
PP5UF-6S23407442021-07-19 23:56:40-27.4612-48.370634658795Clb=7.9m/s t=-38.4C 405.301 MHz Type=RS41-SGP Vaisala http://sondehub.org/S2340744 https://radiosondy.info/sonde.php?sondenumber
PP5UF-6S23407442021-07-19 23:56:20-27.4641-48.374251898662Clb=6.5m/s t=-37.3C 405.301 MHz Type=RS41-SGP Vaisala http://sondehub.org/S2340744 https://radiosondy.info/sonde.php?sondenumber
PP5UF-6S23407442021-07-19 23:56:00-27.4672-48.376946748540Clb=5.8m/s t=-36.7C 405.301 MHz Type=RS41-SGP Vaisala http://sondehub.org/S2340744 https://radiosondy.info/sonde.php?sondenumber
PP5UF-6S23407442021-07-19 23:55:20-27.4749-48.3825361048295Clb=3.9m/s t=-34.5C 405.301 MHz Type=RS41-SGP Vaisala http://sondehub.org/S2340744 https://radiosondy.info/sonde.php?sondenumber
PP5UF-6S23407442021-07-19 23:55:00-27.4787-48.385130808147Clb=3.6m/s t=-33.2C 405.301 MHz Type=RS41-SGP Vaisala http://sondehub.org/S2340744 https://radiosondy.info/sonde.php?sondenumber
PP5UF-6S23407442021-07-19 23:54:00-27.4889-48.395535697780Clb=9.6m/s t=-29.8C 405.301 MHz Type=RS41-SGP Vaisala http://sondehub.org/S2340744 https://radiosondy.info/sonde.php?sondenumber
PP5UF-6S23407442021-07-19 23:53:40-27.4918-48.399571047632Clb=8.3m/s t=-28.5C 405.301 MHz Type=RS41-SGP Vaisala http://sondehub.org/S2340744 https://radiosondy.info/sonde.php?sondenumber
PP5UF-6S23407442021-07-19 23:53:00-27.4988-48.4073481097365Clb=4.2m/s t=-25.9C 405.301 MHz Type=RS41-SGP Vaisala http://sondehub.org/S2340744 https://radiosondy.info/sonde.php?sondenumber
PP5UF-6S23407442021-07-19 23:52:40-27.5019-48.411849967218Clb=7.1m/s t=-24.4C 405.301 MHz Type=RS41-SGP Vaisala http://sondehub.org/S2340744 https://radiosondy.info/sonde.php?sondenumber
PP5UF-6S23407442021-07-19 23:52:20-27.5048-48.41659877106Clb=5.3m/s t=-23.4C 405.301 MHz Type=RS41-SGP Vaisala http://sondehub.org/S2340744 https://radiosondy.info/sonde.php?sondenumber
PP5UF-6S23407442021-07-19 23:52:00-27.5083-48.4206381026978Clb=8.5m/s t=-22.3C 405.301 MHz Type=RS41-SGP Vaisala http://sondehub.org/S2340744 https://radiosondy.info/sonde.php?sondenumber
PP5UF-6S23407442021-07-19 23:51:40-27.5116-48.4249451006838Clb=6.4m/s t=-21.5C 405.301 MHz Type=RS41-SGP Vaisala http://sondehub.org/S2340744 https://radiosondy.info/sonde.php?sondenumber
PP5UF-6S23407442021-07-19 23:51:20-27.5147-48.429753986718Clb=4.6m/s t=-20.8C 405.301 MHz Type=RS41-SGP Vaisala http://sondehub.org/S2340744 https://radiosondy.info/sonde.php?sondenumber
PP5UF-6S23407442021-07-19 23:51:00-27.5178-48.434356986613Clb=4.6m/s t=-20.4C 405.301 MHz Type=RS41-SGP Vaisala http://sondehub.org/S2340744 https://radiosondy.info/sonde.php?sondenumber
PP5UF-6S23407442021-07-19 23:50:40-27.521-48.439157946504Clb=3.4m/s t=-19.7C 405.301 MHz Type=RS41-SGP Vaisala http://sondehub.org/S2340744 https://radiosondy.info/sonde.php?sondenumber
PP5UF-6S23407442021-07-19 23:50:20-27.524-48.4436551026370Clb=8.4m/s t=-18.6C 405.301 MHz Type=RS41-SGP Vaisala http://sondehub.org/S2340744 https://radiosondy.info/sonde.php?sondenumber
PP5UF-6S23407442021-07-19 23:50:00-27.5275-48.4483481176260Clb=6.6m/s t=-17.6C 405.301 MHz Type=RS41-SGP Vaisala http://sondehub.org/S2340744 https://radiosondy.info/sonde.php?sondenumber
PP5UF-6S23407442021-07-19 23:49:40-27.531-48.4527461066149Clb=6.2m/s t=-16.6C 405.301 MHz Type=RS41-SGP Vaisala http://sondehub.org/S2340744 https://radiosondy.info/sonde.php?sondenumber
PP5UF-6S23407442021-07-19 23:49:20-27.5348-48.4568471076028Clb=5.5m/s t=-15.4C 405.301 MHz Type=RS41-SGP Vaisala http://sondehub.org/S2340744 https://radiosondy.info/sonde.php?sondenumber
PP5UF-6S23407442021-07-19 23:49:00-27.5383-48.461401095916Clb=5.9m/s t=-14.4C 405.301 MHz Type=RS41-SGP Vaisala http://sondehub.org/S2340744 https://radiosondy.info/sonde.php?sondenumber
PP5UF-6S23407442021-07-19 23:48:40-27.5419-48.4653471065816Clb=5.3m/s t=-13.5C 405.301 MHz Type=RS41-SGP Vaisala http://sondehub.org/S2340744 https://radiosondy.info/sonde.php?sondenumber
PP5UF-6S23407442021-07-19 23:48:20-27.5456-48.4698471075707Clb=5.8m/s t=-12.5C 405.301 MHz Type=RS41-SGP Vaisala http://sondehub.org/S2340744 https://radiosondy.info/sonde.php?sondenumber
PP5UF-6S23407442021-07-19 23:48:00-27.5495-48.474501065587Clb=8.2m/s t=-11.3C 405.301 MHz Type=RS41-SGP Vaisala http://sondehub.org/S2340744 https://radiosondy.info/sonde.php?sondenumber
PP5UF-6S23407442021-07-19 23:47:40-27.5532-48.4778341075488Clb=5.1m/s t=-10.4C 405.301 MHz Type=RS41-SGP Vaisala http://sondehub.org/S2340744 https://radiosondy.info/sonde.php?sondenumber
PP5UF-6S23407442021-07-19 23:47:20-27.5571-48.4817431095363Clb=5.1m/s t=-9.3C 405.301 MHz Type=RS41-SGP Vaisala http://sondehub.org/S2340744 https://radiosondy.info/sonde.php?sondenumber=
PP5UF-6S23407442021-07-19 23:47:00-27.561-48.485434985252Clb=7.1m/s t=-8.3C 405.301 MHz Type=RS41-SGP Vaisala http://sondehub.org/S2340744 https://radiosondy.info/sonde.php?sondenumber=
PP5UF-6S23407442021-07-19 23:46:40-27.5653-48.48938935138Clb=6.0m/s t=-7.3C 405.301 MHz Type=RS41-SGP Vaisala http://sondehub.org/S2340744 https://radiosondy.info/sonde.php?sondenumber=
PP5UF-6S23407442021-07-19 23:46:20-27.5696-48.492640965021Clb=6.9m/s t=-6.2C 405.301 MHz Type=RS41-SGP Vaisala http://sondehub.org/S2340744 https://radiosondy.info/sonde.php?sondenumber=
PP5UF-6S23407442021-07-19 23:46:00-27.5739-48.49631964898Clb=3.1m/s t=-5.3C 405.301 MHz Type=RS41-SGP Vaisala http://sondehub.org/S2340744 https://radiosondy.info/sonde.php?sondenumber=
PP5UF-6S23407442021-07-19 23:45:40-27.5782-48.49922964776Clb=5.1m/s t=-4.6C 405.301 MHz Type=RS41-SGP Vaisala http://sondehub.org/S2340744 https://radiosondy.info/sonde.php?sondenumber=
PP5UF-6S23407442021-07-19 23:45:20-27.583-48.5017231174663Clb=5.0m/s t=-4.1C 405.301 MHz Type=RS41-SGP Vaisala http://sondehub.org/S2340744 https://radiosondy.info/sonde.php?sondenumber=
PP5UF-6S23407442021-07-19 23:45:00-27.5878-48.504124874543Clb=5.5m/s t=-6.3C 405.301 MHz Type=RS41-SGP Vaisala http://sondehub.org/S2340744 https://radiosondy.info/sonde.php?sondenumber=
PP5UF-6S23407442021-07-19 23:44:40-27.591-48.506233614417Clb=6.9m/s t=-6.9C 405.301 MHz Type=RS41-SGP Vaisala http://sondehub.org/S2340744 https://radiosondy.info/sonde.php?sondenumber=
PP5UF-6S23407442021-07-19 23:44:20-27.5938-48.508225694297Clb=7.2m/s t=-6.2C 405.301 MHz Type=RS41-SGP Vaisala http://sondehub.org/S2340744 https://radiosondy.info/sonde.php?sondenumber=
PP5UF-6S23407442021-07-19 23:44:00-27.5966-48.509830744171Clb=5.2m/s t=-5.7C 405.301 MHz Type=RS41-SGP Vaisala http://sondehub.org/S2340744 https://radiosondy.info/sonde.php?sondenumber=
PP5UF-6S23407442021-07-19 23:43:40-27.5998-48.511715814046Clb=5.9m/s t=-4.8C 405.301 MHz Type=RS41-SGP Vaisala http://sondehub.org/S2340744 https://radiosondy.info/sonde.php?sondenumber=
PP5UF-6S23407442021-07-19 23:43:20-27.6037-48.51285633904Clb=8.6m/s t=-3.7C 405.301 MHz Type=RS41-SGP Vaisala http://sondehub.org/S2340744 https://radiosondy.info/sonde.php?sondenumber=
PP5UF-6S23407442021-07-19 23:43:00-27.607-48.513925743791Clb=6.7m/s t=-2.9C 405.301 MHz Type=RS41-SGP Vaisala http://sondehub.org/S2340744 https://radiosondy.info/sonde.php?sondenumber=
PP5UF-6S23407442021-07-19 23:42:40-27.6113-48.515714873637Clb=7.0m/s t=-1.6C 405.301 MHz Type=RS41-SGP Vaisala http://sondehub.org/S2340744 https://radiosondy.info/sonde.php?sondenumber=
PP5UF-6S23407442021-07-19 23:42:20-27.6141-48.516826833548Clb=6.7m/s t=-1.1C 405.301 MHz Type=RS41-SGP Vaisala http://sondehub.org/S2340744 https://radiosondy.info/sonde.php?sondenumber=
PP5UF-6S23407442021-07-19 23:42:00-27.6177-48.518729813424Clb=5.9m/s t=-0.2C 405.301 MHz Type=RS41-SGP Vaisala http://sondehub.org/S2340744 https://radiosondy.info/sonde.php?sondenumber=
PP5UF-6S23407442021-07-19 23:41:40-27.6209-48.520217743315Clb=6.1m/s t=0.3C 405.301 MHz Type=RS41-SGP Vaisala http://sondehub.org/S2340744 https://radiosondy.info/sonde.php?sondenumber=S
PP5UF-6S23407442021-07-19 23:41:20-27.6248-48.522228853192Clb=7.4m/s t=0.7C 405.301 MHz Type=RS41-SGP Vaisala http://sondehub.org/S2340744 https://radiosondy.info/sonde.php?sondenumber=S
PP5UF-6S23407442021-07-19 23:40:40-27.6321-48.524319702935Clb=7.6m/s t=2.1C 405.301 MHz Type=RS41-SGP Vaisala http://sondehub.org/S2340744 https://radiosondy.info/sonde.php?sondenumber=S
PP5UF-6S23407442021-07-19 23:40:20-27.6357-48.5253852796Clb=7.5m/s t=2.0C 405.301 MHz Type=RS41-SGP Vaisala http://sondehub.org/S2340744 https://radiosondy.info/sonde.php?sondenumber=S
PP5UF-6S23407442021-07-19 23:40:00-27.6394-48.52566722653Clb=7.9m/s t=2.4C 405.301 MHz Type=RS41-SGP Vaisala http://sondehub.org/S2340744 https://radiosondy.info/sonde.php?sondenumber=S
PP5UF-6S23407442021-07-19 23:39:40-27.6427-48.52593522506Clb=7.1m/s t=2.6C 405.301 MHz Type=RS41-SGP Vaisala http://sondehub.org/S2340744 https://radiosondy.info/sonde.php?sondenumber=S
PP5UF-6S23407442021-07-19 23:39:20-27.6455-48.52642522362Clb=7.3m/s t=3.5C 405.301 MHz Type=RS41-SGP Vaisala http://sondehub.org/S2340744 https://radiosondy.info/sonde.php?sondenumber=S
PP5UF-6S23407442021-07-19 23:39:00-27.6488-48.52689762217Clb=9.2m/s t=4.1C 405.301 MHz Type=RS41-SGP Vaisala http://sondehub.org/S2340744 https://radiosondy.info/sonde.php?sondenumber=S
PP5UF-6S23407442021-07-19 23:38:40-27.6517-48.527721542069Clb=6.6m/s t=4.1C 405.301 MHz Type=RS41-SGP Vaisala http://sondehub.org/S2340744 https://radiosondy.info/sonde.php?sondenumber=S
PP5UF-6S23407442021-07-19 23:38:20-27.6543-48.528721501918Clb=5.1m/s t=4.7C 405.302 MHz Type=RS41-SGP Vaisala http://sondehub.org/S2340744 https://radiosondy.info/sonde.php?sondenumber=S
PP5UF-6S23407442021-07-19 23:38:00-27.6567-48.529521501764Clb=7.3m/s t=5.1C 405.302 MHz Type=RS41-SGP Vaisala http://sondehub.org/S2340744 https://radiosondy.info/sonde.php?sondenumber=S
PP5UF-6S23407442021-07-19 23:37:40-27.659-48.530427501629Clb=5.6m/s t=5.9C 405.302 MHz Type=RS41-SGP Vaisala http://sondehub.org/S2340744 https://radiosondy.info/sonde.php?sondenumber=S
PP5UF-6S23407442021-07-19 23:37:20-27.6612-48.531934351481Clb=8.4m/s t=7.1C 405.302 MHz Type=RS41-SGP Vaisala http://sondehub.org/S2340744 https://radiosondy.info/sonde.php?sondenumber=S
PP5UF-6S23407442021-07-19 23:37:00-27.6627-48.532938351361Clb=8.9m/s t=8.1C 405.302 MHz Type=RS41-SGP Vaisala http://sondehub.org/S2340744 https://radiosondy.info/sonde.php?sondenumber=S
PP5UF-6S23407442021-07-19 23:36:40-27.664-48.534345391232Clb=8.3m/s t=9.0C 405.302 MHz Type=RS41-SGP Vaisala http://sondehub.org/S2340744 https://radiosondy.info/sonde.php?sondenumber=S
PP5UF-6S23407442021-07-19 23:36:20-27.6654-48.535642301103Clb=7.8m/s t=9.3C 405.302 MHz Type=RS41-SGP Vaisala http://sondehub.org/S2340744 https://radiosondy.info/sonde.php?sondenumber=S
PP5UF-6S23407442021-07-19 23:36:00-27.6665-48.53653426971Clb=5.2m/s t=10.5C 405.302 MHz Type=RS41-SGP Vaisala http://sondehub.org/S2340744 https://radiosondy.info/sonde.php?sondenumber=